Time;durP1;ratioP1;P1;durP2;ratioP2;P2;SDS_P1;SDS_P2;PMS_P1;PMS_P2;Temp;Humidity;BMP_temperature;BMP_pressure;BME280_temperature;BME280_humidity;BME280_pressure;Samples;Min_cycle;Max_cycle;Signal;HPM_P1;HPM_P2
2021/09/28 00:00:10;;;;;;;16.38;13.30;;;18.70;92.30;;;;;;4864196;29;20132;-67
2021/09/28 00:02:39;;;;;;;17.67;12.68;;;18.60;92.30;;;;;;4864069;29;20482;-67
2021/09/28 00:05:05;;;;;;;16.33;13.27;;;18.60;92.40;;;;;;4861138;29;20081;-67
2021/09/28 00:07:31;;;;;;;17.27;13.70;;;18.70;92.50;;;;;;4862346;29;20045;-67
2021/09/28 00:09:56;;;;;;;18.42;14.52;;;18.70;92.50;;;;;;4857447;29;20044;-67
2021/09/28 00:12:22;;;;;;;17.45;13.25;;;18.70;92.50;;;;;;4855175;29;20044;-67
2021/09/28 00:14:48;;;;;;;19.90;14.25;;;18.70;92.50;;;;;;4852912;29;20037;-67
2021/09/28 00:17:13;;;;;;;15.73;13.75;;;18.80;92.50;;;;;;4850167;29;20221;-67
2021/09/28 00:19:40;;;;;;;18.77;14.35;;;18.80;92.50;;;;;;4850427;29;20045;-67
2021/09/28 00:22:06;;;;;;;19.02;14.07;;;18.70;92.50;;;;;;4852171;29;20029;-67
2021/09/28 00:24:33;;;;;;;18.83;13.93;;;18.80;92.50;;;;;;4860850;29;20036;-67
2021/09/28 00:27:00;;;;;;;16.58;13.65;;;18.80;92.50;;;;;;4859607;29;20037;-67
2021/09/28 00:29:26;;;;;;;18.35;13.80;;;18.80;92.50;;;;;;4858141;29;20136;-67
2021/09/28 00:31:52;;;;;;;18.38;14.40;;;18.80;92.50;;;;;;4856310;29;20100;-67
2021/09/28 00:34:18;;;;;;;17.35;13.75;;;18.80;92.40;;;;;;4854031;29;20045;-67
2021/09/28 00:36:44;;;;;;;17.17;13.20;;;18.70;92.40;;;;;;4865846;29;20047;-67
2021/09/28 00:39:10;;;;;;;15.38;12.77;;;18.70;92.40;;;;;;4849528;29;20034;-67
2021/09/28 00:41:36;;;;;;;17.92;13.15;;;18.70;92.30;;;;;;4850622;29;20041;-67
2021/09/28 00:44:02;;;;;;;16.88;13.50;;;18.60;92.30;;;;;;4852639;29;20045;-67
2021/09/28 00:46:28;;;;;;;18.40;13.57;;;18.60;92.30;;;;;;4854731;29;20064;-67
2021/09/28 00:48:54;;;;;;;19.08;14.20;;;18.60;92.40;;;;;;4856405;29;20112;-67
2021/09/28 00:51:20;;;;;;;18.42;12.95;;;18.50;92.40;;;;;;4858685;29;20068;-67
2021/09/28 00:53:49;;;;;;;16.33;13.65;;;18.50;92.40;;;;;;4860624;29;20049;-67
2021/09/28 00:56:17;;;;;;;16.45;13.15;;;18.50;92.40;;;;;;4877465;29;20133;-67
2021/09/28 00:58:44;;;;;;;17.85;13.50;;;18.40;92.40;;;;;;4864597;29;20569;-67
2021/09/28 01:01:11;;;;;;;16.92;13.18;;;18.40;92.40;;;;;;4866282;29;20429;-67
2021/09/28 01:03:37;;;;;;;17.75;13.18;;;18.40;92.40;;;;;;4863926;29;20048;-67
2021/09/28 01:06:04;;;;;;;15.15;12.32;;;18.30;92.40;;;;;;4862285;29;20065;-67
2021/09/28 01:08:30;;;;;;;15.63;12.45;;;18.30;92.40;;;;;;4856317;29;20116;-67
2021/09/28 01:10:56;;;;;;;14.93;12.30;;;18.30;92.40;;;;;;4862798;29;20083;-67
2021/09/28 01:13:23;;;;;;;16.25;11.98;;;18.30;92.40;;;;;;4859803;29;20081;-67
2021/09/28 01:16:00;;;;;;;16.50;12.30;;;18.30;92.40;;;;;;4861175;29;20172;-67
2021/09/28 01:18:32;;;;;;;15.13;11.50;;;18.20;92.40;;;;;;4863855;29;20100;-67
2021/09/28 01:20:59;;;;;;;13.73;11.82;;;18.30;92.50;;;;;;4879955;29;20045;-67
2021/09/28 01:23:24;;;;;;;16.60;12.40;;;18.30;92.60;;;;;;4864353;29;20040;-67
2021/09/28 01:25:50;;;;;;;14.80;11.25;;;18.20;92.60;;;;;;4862771;29;20029;-67
2021/09/28 01:28:16;;;;;;;15.82;11.55;;;18.30;92.60;;;;;;4859914;29;20515;-67
2021/09/28 01:30:42;;;;;;;13.77;10.60;;;18.30;92.60;;;;;;4858766;29;20041;-67
2021/09/28 01:33:08;;;;;;;15.18;12.07;;;18.40;92.50;;;;;;4857546;29;20089;-67
2021/09/28 01:35:37;;;;;;;13.15;10.82;;;18.40;92.50;;;;;;4853391;29;20033;-67
2021/09/28 01:38:03;;;;;;;13.85;10.88;;;18.40;92.50;;;;;;4851270;29;20052;-67
2021/09/28 01:40:29;;;;;;;16.25;11.98;;;18.40;92.50;;;;;;4849097;29;20037;-67
2021/09/28 01:42:55;;;;;;;15.13;11.52;;;18.40;92.40;;;;;;4846875;29;20041;-67
2021/09/28 01:45:20;;;;;;;13.55;11.20;;;18.50;92.50;;;;;;4861845;29;20097;-67
2021/09/28 01:47:46;;;;;;;13.60;10.88;;;18.50;92.40;;;;;;4852032;29;20038;-67
2021/09/28 01:50:12;;;;;;;11.07;9.82;;;18.50;92.40;;;;;;4853429;29;20129;-67
2021/09/28 01:52:38;;;;;;;13.70;11.00;;;18.50;92.30;;;;;;4856219;29;20056;-67
2021/09/28 01:55:08;;;;;;;13.10;11.07;;;18.50;92.30;;;;;;4858672;29;20042;-67
2021/09/28 01:57:34;;;;;;;13.32;10.68;;;18.50;92.30;;;;;;4860417;29;20066;-67
2021/09/28 02:00:00;;;;;;;14.02;11.30;;;18.60;92.30;;;;;;4862914;29;20040;-67
2021/09/28 02:02:26;;;;;;;14.63;10.73;;;18.50;92.30;;;;;;4864343;29;20176;-67
2021/09/28 02:04:52;;;;;;;14.85;11.80;;;18.60;92.20;;;;;;4864022;29;20157;-67
2021/09/28 02:07:18;;;;;;;12.02;10.60;;;18.60;92.20;;;;;;4861978;29;20108;-67
2021/09/28 02:09:43;;;;;;;12.50;9.93;;;18.60;92.20;;;;;;4860305;29;20049;-67
2021/09/28 02:12:09;;;;;;;14.20;9.82;;;18.60;92.10;;;;;;4857451;29;20045;-67
2021/09/28 02:14:35;;;;;;;14.13;10.50;;;18.60;92.00;;;;;;4855779;29;20068;-67
2021/09/28 02:17:01;;;;;;;13.38;9.68;;;18.60;92.00;;;;;;4852734;29;20152;-67
2021/09/28 02:19:27;;;;;;;12.82;9.95;;;18.60;92.00;;;;;;4851650;29;20124;-67
2021/09/28 02:21:52;;;;;;;12.68;9.85;;;18.60;91.90;;;;;;4860614;29;20033;-64
2021/09/28 02:24:18;;;;;;;10.48;8.80;;;18.50;91.90;;;;;;4851427;29;20582;-64
2021/09/28 02:26:44;;;;;;;13.02;9.02;;;18.50;91.80;;;;;;4849522;29;20034;-64
2021/09/28 02:29:11;;;;;;;10.77;8.48;;;18.50;91.80;;;;;;4849439;29;20046;-64
2021/09/28 02:31:37;;;;;;;10.52;8.77;;;18.50;91.90;;;;;;4853912;29;20037;-64
2021/09/28 02:34:06;;;;;;;11.50;8.95;;;18.50;91.80;;;;;;4855798;29;20041;-64
2021/09/28 02:36:35;;;;;;;9.48;8.48;;;18.40;91.80;;;;;;4857652;29;20049;-64
2021/09/28 02:39:01;;;;;;;10.10;8.25;;;18.40;91.80;;;;;;4852010;29;20112;-64
2021/09/28 02:41:26;;;;;;;11.25;8.32;;;18.40;91.80;;;;;;4849962;29;20874;-64
2021/09/28 02:43:52;;;;;;;11.07;8.70;;;18.40;91.70;;;;;;4848127;29;20036;-64
2021/09/28 02:46:17;;;;;;;11.48;8.15;;;18.40;91.80;;;;;;4848670;29;20045;-64
2021/09/28 02:48:43;;;;;;;9.50;7.85;;;18.40;91.60;;;;;;4850171;29;20369;-64
2021/09/28 02:51:09;;;;;;;10.40;7.72;;;18.40;91.50;;;;;;4852999;29;20033;-64
2021/09/28 02:53:34;;;;;;;9.45;7.07;;;18.50;91.50;;;;;;4854448;29;20406;-64
2021/09/28 02:56:00;;;;;;;11.02;7.30;;;18.50;91.40;;;;;;4856215;29;20462;-64
2021/09/28 02:58:26;;;;;;;10.77;6.45;;;18.50;91.20;;;;;;4859858;29;20781;-64
2021/09/28 03:00:52;;;;;;;7.55;6.30;;;18.50;91.20;;;;;;4861556;29;20041;-64
2021/09/28 03:03:17;;;;;;;8.35;5.53;;;18.60;91.00;;;;;;4862667;29;20045;-64
2021/09/28 03:05:43;;;;;;;7.13;5.07;;;18.60;90.50;;;;;;4864922;29;20112;-64
2021/09/28 03:08:09;;;;;;;5.65;4.40;;;18.50;90.50;;;;;;4863884;29;20651;-64
2021/09/28 03:10:36;;;;;;;9.40;4.35;;;18.50;90.40;;;;;;4862215;29;20045;-64
2021/09/28 03:13:02;;;;;;;6.18;3.58;;;18.60;90.30;;;;;;4861139;29;20542;-64
2021/09/28 03:15:28;;;;;;;5.75;3.55;;;18.50;89.80;;;;;;4862008;29;20129;-64
2021/09/28 03:17:53;;;;;;;3.92;3.47;;;18.50;89.20;;;;;;4857849;29;20041;-64
2021/09/28 03:20:19;;;;;;;3.85;3.28;;;18.50;88.90;;;;;;4856094;29;20042;-64
2021/09/28 03:22:45;;;;;;;3.58;2.97;;;18.50;88.80;;;;;;4854166;29;20177;-64
2021/09/28 03:25:10;;;;;;;4.18;3.08;;;18.50;87.80;;;;;;4851990;29;20927;-64
2021/09/28 03:27:36;;;;;;;4.15;2.70;;;18.50;88.10;;;;;;4851034;29;20152;-64
2021/09/28 03:30:04;;;;;;;4.18;2.70;;;18.40;88.30;;;;;;4853273;29;20101;-63
2021/09/28 03:32:30;;;;;;;5.07;2.50;;;18.40;88.30;;;;;;4855591;29;20073;-63
2021/09/28 03:34:56;;;;;;;3.88;2.10;;;18.30;88.20;;;;;;4857181;29;20281;-64
2021/09/28 03:37:22;;;;;;;3.92;2.60;;;18.30;88.10;;;;;;4859393;29;20037;-64
2021/09/28 03:39:47;;;;;;;3.97;2.47;;;18.20;88.40;;;;;;4862042;29;20045;-64
2021/09/28 03:42:13;;;;;;;3.08;2.47;;;18.20;88.80;;;;;;4863844;29;20045;-64
2021/09/28 03:44:39;;;;;;;3.40;2.58;;;18.10;89.10;;;;;;4852456;29;20087;-64
2021/09/28 03:47:05;;;;;;;3.08;2.25;;;18.10;89.40;;;;;;4850617;29;20128;-64
2021/09/28 03:49:33;;;;;;;2.10;1.90;;;18.10;89.60;;;;;;4851144;29;20124;-64
2021/09/28 03:51:59;;;;;;;3.22;2.10;;;18.10;89.60;;;;;;4864701;29;20037;-64
2021/09/28 03:54:24;;;;;;;5.22;2.13;;;18.10;89.10;;;;;;4860832;29;20100;-64
2021/09/28 03:56:50;;;;;;;2.53;1.90;;;18.00;89.20;;;;;;4858956;29;20046;-63
2021/09/28 03:59:15;;;;;;;3.22;1.55;;;18.00;89.30;;;;;;4857612;29;20044;-64
2021/09/28 04:01:41;;;;;;;3.03;1.63;;;18.00;88.70;;;;;;4857473;29;20045;-63
2021/09/28 04:04:07;;;;;;;2.13;1.40;;;18.00;88.20;;;;;;4873643;29;20036;-64
2021/09/28 04:06:32;;;;;;;4.68;1.58;;;18.00;87.10;;;;;;4871103;29;20033;-64
2021/09/28 04:08:58;;;;;;;2.70;1.50;;;17.90;86.80;;;;;;4867611;29;20120;-64
2021/09/28 04:11:24;;;;;;;2.10;1.45;;;17.90;87.10;;;;;;4855900;29;20136;-64
2021/09/28 04:13:50;;;;;;;2.08;1.00;;;18.00;86.60;;;;;;4863966;29;20033;-64
2021/09/28 04:16:16;;;;;;;1.25;1.13;;;17.90;86.10;;;;;;4866273;29;20048;-64
2021/09/28 04:18:43;;;;;;;4.43;1.30;;;17.90;86.60;;;;;;4858238;29;20525;-64
2021/09/28 04:21:09;;;;;;;2.45;1.10;;;17.90;86.60;;;;;;4860790;29;20088;-64
2021/09/28 04:23:35;;;;;;;3.60;1.33;;;17.90;86.50;;;;;;4864239;29;20039;-64
2021/09/28 04:26:02;;;;;;;2.53;1.17;;;17.90;86.30;;;;;;4866104;29;20037;-64
2021/09/28 04:28:28;;;;;;;1.75;1.25;;;17.90;86.20;;;;;;4868981;29;20044;-64
2021/09/28 04:30:54;;;;;;;1.92;1.20;;;17.90;86.10;;;;;;4871577;29;20037;-64
2021/09/28 04:33:19;;;;;;;2.97;1.42;;;17.90;86.00;;;;;;4870733;29;20850;-64
2021/09/28 04:35:46;;;;;;;2.05;1.30;;;17.90;85.90;;;;;;4863889;29;20056;-64
2021/09/28 04:38:12;;;;;;;1.38;1.00;;;17.80;85.90;;;;;;4859245;29;20110;-64
2021/09/28 04:40:37;;;;;;;3.78;0.95;;;17.70;85.80;;;;;;4865244;29;20044;-64
2021/09/28 04:43:03;;;;;;;5.97;1.20;;;17.80;85.80;;;;;;4865058;29;20037;-64
2021/09/28 04:45:29;;;;;;;1.88;1.25;;;17.80;85.70;;;;;;4862617;29;20037;-64
2021/09/28 04:47:55;;;;;;;1.65;1.02;;;17.80;85.90;;;;;;4861190;29;20041;-64
2021/09/28 04:50:20;;;;;;;1.83;1.02;;;17.80;86.10;;;;;;4854680;29;20033;-64
2021/09/28 04:52:46;;;;;;;4.32;1.50;;;17.80;86.00;;;;;;4866343;29;20166;-64
2021/09/28 04:55:12;;;;;;;3.55;1.20;;;17.80;86.20;;;;;;4861726;29;20112;-64
2021/09/28 04:57:38;;;;;;;2.45;1.20;;;17.80;86.20;;;;;;4858957;29;20479;-64
2021/09/28 05:00:05;;;;;;;1.27;1.13;;;17.80;86.30;;;;;;4860447;29;20050;-64
2021/09/28 05:02:31;;;;;;;2.05;1.02;;;17.70;86.10;;;;;;4862368;29;20030;-64
2021/09/28 05:04:56;;;;;;;1.60;1.20;;;17.80;86.40;;;;;;4858856;29;20454;-64
2021/09/28 05:07:22;;;;;;;2.63;1.27;;;17.70;86.30;;;;;;4862968;29;20052;-64
2021/09/28 05:09:49;;;;;;;4.13;1.60;;;17.80;86.30;;;;;;4871751;29;20029;-64
2021/09/28 05:12:14;;;;;;;2.22;0.80;;;17.70;85.80;;;;;;4857619;29;20033;-64
2021/09/28 05:14:40;;;;;;;1.35;0.77;;;17.70;86.10;;;;;;4857945;29;20096;-64
2021/09/28 05:17:06;;;;;;;2.63;0.93;;;17.70;86.20;;;;;;4853155;29;20065;-64
2021/09/28 05:19:31;;;;;;;2.40;0.90;;;17.70;86.60;;;;;;4855136;29;20033;-64
2021/09/28 05:21:57;;;;;;;1.55;1.02;;;17.60;86.80;;;;;;4868459;29;20032;-64
2021/09/28 05:24:23;;;;;;;3.85;1.10;;;17.60;87.00;;;;;;4862581;29;20742;-64
2021/09/28 05:26:49;;;;;;;2.05;0.90;;;17.60;87.30;;;;;;4863445;29;20679;-64
2021/09/28 05:29:14;;;;;;;1.35;0.90;;;17.60;87.40;;;;;;4866024;29;20695;-64
2021/09/28 05:31:40;;;;;;;2.08;0.90;;;17.50;87.80;;;;;;4865561;29;20044;-64
2021/09/28 05:34:06;;;;;;;1.88;1.05;;;17.50;88.10;;;;;;4864380;29;20118;-64
2021/09/28 05:36:31;;;;;;;3.13;1.00;;;17.40;88.30;;;;;;4862673;29;20674;-64
2021/09/28 05:38:57;;;;;;;3.53;1.02;;;17.40;88.70;;;;;;4859594;29;20048;-64
2021/09/28 05:41:23;;;;;;;3.00;1.25;;;17.40;88.70;;;;;;4863954;29;20040;-64
2021/09/28 05:43:48;;;;;;;2.83;1.30;;;17.40;88.60;;;;;;4864982;29;20095;-64
2021/09/28 05:46:14;;;;;;;4.00;1.40;;;17.30;88.80;;;;;;4858249;29;20045;-64
2021/09/28 05:48:40;;;;;;;1.40;0.98;;;17.30;89.40;;;;;;4861611;29;20060;-64
2021/09/28 05:51:16;;;;;;;2.83;1.13;;;17.30;89.70;;;;;;4866252;29;20041;-64
2021/09/28 05:53:44;;;;;;;2.38;1.05;;;17.30;89.90;;;;;;4862914;29;20049;-64
2021/09/28 05:56:10;;;;;;;4.97;1.15;;;17.30;89.60;;;;;;4855383;29;20033;-65
2021/09/28 05:58:36;;;;;;;1.95;1.17;;;17.30;89.50;;;;;;4859500;29;20049;-64
2021/09/28 06:01:02;;;;;;;4.40;1.13;;;17.30;89.70;;;;;;4869292;29;20039;-65
2021/09/28 06:03:27;;;;;;;4.95;1.40;;;17.40;89.60;;;;;;4867868;29;20826;-65
2021/09/28 06:05:53;;;;;;;3.58;0.95;;;17.40;89.40;;;;;;4859843;29;20029;-65
2021/09/28 06:08:19;;;;;;;4.82;1.08;;;17.40;89.30;;;;;;4861315;29;20029;-65
2021/09/28 06:10:45;;;;;;;2.97;1.15;;;17.30;89.60;;;;;;4864669;29;20033;-65
2021/09/28 06:13:10;;;;;;;2.95;1.38;;;17.30;89.60;;;;;;4865112;29;20037;-65
2021/09/28 06:15:36;;;;;;;3.63;1.42;;;17.40;89.90;;;;;;4864829;29;20682;-65
2021/09/28 06:18:02;;;;;;;3.92;1.30;;;17.40;90.10;;;;;;4866692;29;20049;-64
2021/09/28 06:20:27;;;;;;;1.88;1.10;;;17.50;90.20;;;;;;4859704;29;20073;-65
2021/09/28 06:22:53;;;;;;;2.30;1.45;;;17.60;89.80;;;;;;4870595;29;20478;-64
2021/09/28 06:25:19;;;;;;;3.72;1.50;;;17.70;89.50;;;;;;4857387;29;20137;-65
2021/09/28 06:27:44;;;;;;;2.47;1.10;;;17.80;89.10;;;;;;4863119;29;20056;-65
2021/09/28 06:30:10;;;;;;;2.65;1.20;;;17.80;88.70;;;;;;4858542;29;20037;-64
2021/09/28 06:32:36;;;;;;;2.15;1.02;;;17.80;88.40;;;;;;4868185;29;20068;-65
2021/09/28 06:35:02;;;;;;;1.88;0.80;;;17.80;88.60;;;;;;4856424;29;20072;-69
2021/09/28 06:37:28;;;;;;;3.95;1.30;;;17.80;88.80;;;;;;4867197;29;20490;-65
2021/09/28 06:39:54;;;;;;;2.08;0.80;;;17.80;88.50;;;;;;4864996;29;20033;-66
2021/09/28 06:42:19;;;;;;;2.38;1.10;;;17.80;88.10;;;;;;4865052;29;20038;-68
2021/09/28 06:44:45;;;;;;;4.47;0.93;;;17.70;87.80;;;;;;4860173;29;20039;-66
2021/09/28 06:47:11;;;;;;;7.45;1.25;;;17.70;88.10;;;;;;4865581;29;20064;-66
2021/09/28 06:49:36;;;;;;;3.05;1.55;;;17.70;88.40;;;;;;4860059;29;20033;-64
2021/09/28 06:52:02;;;;;;;3.85;1.55;;;17.70;88.10;;;;;;4875757;29;20052;-66
2021/09/28 06:54:28;;;;;;;4.60;1.02;;;17.70;87.90;;;;;;4870680;29;20076;-67
2021/09/28 06:56:54;;;;;;;2.03;1.10;;;17.70;88.00;;;;;;4864646;29;20068;-67
2021/09/28 06:59:19;;;;;;;4.10;1.27;;;17.60;87.70;;;;;;4867319;29;20697;-67
2021/09/28 07:01:45;;;;;;;1.75;1.02;;;17.60;88.00;;;;;;4863397;29;20038;-67
2021/09/28 07:04:11;;;;;;;3.33;1.40;;;17.60;88.30;;;;;;4863411;29;20029;-66
2021/09/28 07:06:36;;;;;;;3.50;1.42;;;17.60;88.00;;;;;;4865842;29;20037;-66
2021/09/28 07:09:03;;;;;;;4.40;1.58;;;17.60;88.10;;;;;;4857579;29;20037;-68
2021/09/28 07:11:28;;;;;;;3.08;1.55;;;17.60;88.20;;;;;;4854641;29;20044;-67
2021/09/28 07:13:55;;;;;;;2.90;1.35;;;17.60;88.40;;;;;;4879424;29;20154;-67
2021/09/28 07:16:21;;;;;;;3.63;1.25;;;17.70;88.60;;;;;;4854671;29;20447;-68
2021/09/28 07:18:47;;;;;;;3.85;1.50;;;17.70;88.50;;;;;;4867519;29;20052;-68
2021/09/28 07:21:14;;;;;;;3.63;1.30;;;17.70;88.10;;;;;;4864943;29;20108;-67
2021/09/28 07:23:40;;;;;;;4.00;1.17;;;17.80;88.30;;;;;;4861991;29;20041;-66
2021/09/28 07:26:07;;;;;;;8.13;1.48;;;17.80;87.90;;;;;;4859306;29;20486;-68
2021/09/28 07:28:34;;;;;;;4.50;1.40;;;17.70;88.20;;;;;;4863496;29;20144;-69
2021/09/28 07:31:00;;;;;;;5.55;1.40;;;17.70;87.90;;;;;;4864284;29;20049;-67
2021/09/28 07:33:25;;;;;;;3.28;1.40;;;17.80;88.40;;;;;;4855955;29;20112;-66
2021/09/28 07:35:52;;;;;;;4.03;1.45;;;17.70;88.20;;;;;;4867776;29;20466;-66
2021/09/28 07:38:18;;;;;;;4.10;1.60;;;17.70;88.80;;;;;;4867319;29;20037;-66
2021/09/28 07:40:48;;;;;;;3.83;1.50;;;17.70;89.20;;;;;;4864116;29;20402;-66
2021/09/28 07:43:14;;;;;;;1.42;1.30;;;17.80;89.50;;;;;;4861088;29;20177;-65
2021/09/28 07:45:40;;;;;;;5.65;1.75;;;17.90;89.20;;;;;;4868361;29;20108;-66
2021/09/28 07:48:06;;;;;;;5.57;1.70;;;18.10;89.10;;;;;;4863943;29;20494;-66
2021/09/28 07:50:32;;;;;;;4.03;1.30;;;18.10;88.00;;;;;;4856630;29;20045;-67
2021/09/28 07:52:58;;;;;;;6.03;1.40;;;18.10;87.70;;;;;;4872230;29;20040;-64
2021/09/28 07:55:25;;;;;;;4.50;1.88;;;18.20;87.20;;;;;;4866931;29;20494;-66
2021/09/28 07:57:50;;;;;;;7.20;1.92;;;18.20;86.20;;;;;;4871122;29;20036;-66
2021/09/28 08:00:16;;;;;;;7.60;1.90;;;18.10;86.60;;;;;;4864440;29;20095;-66
2021/09/28 08:02:43;;;;;;;5.32;1.73;;;18.10;86.80;;;;;;4856310;29;20037;-65
2021/09/28 08:05:09;;;;;;;5.88;2.38;;;18.10;86.70;;;;;;4861323;29;20144;-66
2021/09/28 08:07:36;;;;;;;6.55;1.83;;;18.10;86.00;;;;;;4864365;29;20033;-66
2021/09/28 08:10:02;;;;;;;5.90;2.10;;;18.10;86.30;;;;;;4867658;29;20044;-66
2021/09/28 08:12:28;;;;;;;3.90;1.83;;;18.00;86.70;;;;;;4867772;29;20123;-65
2021/09/28 08:14:54;;;;;;;9.73;2.00;;;18.10;86.40;;;;;;4868129;29;20041;-66
2021/09/28 08:17:21;;;;;;;6.60;1.90;;;18.10;86.20;;;;;;4865441;29;20041;-66
2021/09/28 08:19:49;;;;;;;5.97;2.20;;;18.10;86.50;;;;;;4880947;29;20042;-64
2021/09/28 08:22:16;;;;;;;6.63;2.33;;;18.10;86.80;;;;;;4866327;29;20141;-66
2021/09/28 08:24:43;;;;;;;5.18;2.03;;;18.20;86.80;;;;;;4868431;29;20033;-66
2021/09/28 08:29:55;;;;;;;6.15;1.98;;;18.20;86.30;;;;;;4870989;29;20036;-66
2021/09/28 08:32:22;;;;;;;7.60;2.13;;;18.20;86.40;;;;;;4862276;29;20061;-66
2021/09/28 08:34:47;;;;;;;3.28;1.75;;;18.20;86.60;;;;;;4863520;29;20041;-66
2021/09/28 08:37:14;;;;;;;7.68;2.45;;;18.20;85.60;;;;;;4872353;29;20048;-66
2021/09/28 08:39:39;;;;;;;4.35;1.88;;;18.10;86.50;;;;;;4857788;29;20762;-66
2021/09/28 08:42:05;;;;;;;5.25;2.25;;;18.20;87.10;;;;;;4868617;29;20143;-66
2021/09/28 08:44:31;;;;;;;6.45;1.85;;;18.10;86.80;;;;;;4858346;29;20037;-66
2021/09/28 08:46:57;;;;;;;4.93;2.22;;;18.20;87.40;;;;;;4864567;29;20150;-66
2021/09/28 08:49:23;;;;;;;7.03;2.38;;;18.20;87.60;;;;;;4861775;29;20658;-66
2021/09/28 08:51:49;;;;;;;7.65;3.05;;;18.30;87.20;;;;;;4869593;29;20057;-66
2021/09/28 08:54:17;;;;;;;9.02;2.10;;;18.30;86.60;;;;;;4865410;29;20049;-66
2021/09/28 08:56:44;;;;;;;3.72;1.75;;;18.30;86.20;;;;;;4862889;29;20082;-66
2021/09/28 08:59:13;;;;;;;5.57;2.03;;;18.30;86.50;;;;;;4867988;29;20846;-66
2021/09/28 09:01:53;;;;;;;9.20;2.30;;;18.40;86.60;;;;;;4863161;29;20041;-66
2021/09/28 09:04:20;;;;;;;4.65;1.95;;;18.40;86.70;;;;;;4876803;29;20033;-66
2021/09/28 09:06:47;;;;;;;9.68;2.15;;;18.40;86.00;;;;;;4851838;29;20033;-66
2021/09/28 09:09:16;;;;;;;7.18;2.03;;;18.50;86.00;;;;;;4870498;29;20036;-66
2021/09/28 09:11:45;;;;;;;7.60;2.33;;;18.40;86.30;;;;;;4862189;29;20052;-66
2021/09/28 09:14:16;;;;;;;5.18;1.90;;;18.50;86.20;;;;;;4865447;29;20058;-66
2021/09/28 09:16:44;;;;;;;7.03;1.95;;;18.40;86.90;;;;;;4850512;29;20041;-66
2021/09/28 09:19:29;;;;;;;7.88;2.53;;;18.40;86.80;;;;;;4861661;29;20040;-66
2021/09/28 09:21:58;;;;;;;8.02;2.00;;;18.50;86.90;;;;;;4855847;29;20450;-67
2021/09/28 09:24:53;;;;;;;6.55;1.67;;;18.60;85.90;;;;;;4857866;29;20562;-66
2021/09/28 09:27:31;;;;;;;11.43;2.15;;;18.60;84.70;;;;;;4862296;29;20037;-66
2021/09/28 09:30:11;;;;;;;6.70;1.88;;;18.60;83.30;;;;;;4861552;29;20065;-66
2021/09/28 09:32:59;;;;;;;9.52;2.30;;;18.50;83.70;;;;;;4860650;29;20386;-66
2021/09/28 09:35:32;;;;;;;6.65;2.35;;;18.60;82.50;;;;;;4855872;29;20046;-65
2021/09/28 09:38:08;;;;;;;4.57;1.60;;;18.60;82.50;;;;;;4857674;29;20036;-66
2021/09/28 09:40:46;;;;;;;7.80;1.65;;;18.60;83.40;;;;;;4864846;29;20448;-65
2021/09/28 09:43:18;;;;;;;5.38;1.83;;;18.60;82.40;;;;;;4862097;29;20701;-66
2021/09/28 09:45:44;;;;;;;7.10;1.80;;;18.50;82.50;;;;;;4861497;29;20037;-66
2021/09/28 09:48:32;;;;;;;6.45;1.90;;;18.50;83.30;;;;;;4862437;29;20115;-66
2021/09/28 09:51:02;;;;;;;7.13;2.10;;;18.60;83.30;;;;;;4862823;29;20054;-66
2021/09/28 09:53:28;;;;;;;6.53;2.05;;;18.60;82.70;;;;;;4861129;29;20044;-66
2021/09/28 09:55:54;;;;;;;7.30;1.70;;;18.70;82.20;;;;;;4864859;29;20043;-66
2021/09/28 09:58:20;;;;;;;5.18;1.90;;;18.70;81.20;;;;;;4859557;29;20048;-67
2021/09/28 10:00:52;;;;;;;9.93;2.08;;;18.70;81.60;;;;;;4856407;29;20711;-66
2021/09/28 10:03:18;;;;;;;5.38;1.70;;;18.80;82.10;;;;;;4861788;29;20061;-65
2021/09/28 10:05:44;;;;;;;7.22;1.77;;;18.80;82.30;;;;;;4864416;29;20148;-66
2021/09/28 10:08:13;;;;;;;5.88;1.98;;;18.90;82.10;;;;;;4864098;29;20573;-65
2021/09/28 10:10:41;;;;;;;5.18;2.00;;;18.90;80.70;;;;;;4854826;29;20038;-66
2021/09/28 10:13:07;;;;;;;5.20;2.13;;;19.00;81.10;;;;;;4857719;29;20073;-65
2021/09/28 10:15:34;;;;;;;7.97;1.83;;;19.10;80.10;;;;;;4860239;29;20044;-65
2021/09/28 10:18:00;;;;;;;6.28;1.85;;;19.30;80.10;;;;;;4857939;29;20037;-64
2021/09/28 10:20:29;;;;;;;12.02;2.42;;;19.40;80.50;;;;;;4869422;29;20048;-65
2021/09/28 10:23:15;;;;;;;59.35;9.50;;;19.50;78.80;;;;;;4858507;29;20101;-65
2021/09/28 10:25:45;;;;;;;14.35;3.53;;;19.60;78.30;;;;;;4864825;29;20474;-67
2021/09/28 10:28:12;;;;;;;5.60;1.98;;;19.70;77.60;;;;;;4865523;29;20044;-65
2021/09/28 10:30:42;;;;;;;9.50;2.13;;;19.60;75.80;;;;;;4866048;29;20033;-66
2021/09/28 10:33:11;;;;;;;10.80;2.15;;;19.70;77.50;;;;;;4866071;29;20126;-66
2021/09/28 10:35:55;;;;;;;5.55;1.58;;;19.80;76.10;;;;;;4865826;29;20132;-66
2021/09/28 10:38:42;;;;;;;10.15;2.13;;;19.90;75.50;;;;;;4862351;29;20152;-65
2021/09/28 10:41:08;;;;;;;9.00;1.95;;;19.90;75.90;;;;;;4859368;29;20041;-65
2021/09/28 10:43:34;;;;;;;7.75;1.67;;;19.90;74.10;;;;;;4858560;29;20047;-66
2021/09/28 10:46:04;;;;;;;7.47;1.77;;;19.90;73.30;;;;;;4856468;29;20041;-66
2021/09/28 10:48:34;;;;;;;6.72;1.38;;;20.00;73.60;;;;;;4865150;29;20139;-66
2021/09/28 10:51:23;;;;;;;9.00;1.60;;;20.10;73.70;;;;;;4868759;29;20048;-66
2021/09/28 10:53:54;;;;;;;6.57;1.40;;;20.10;72.40;;;;;;4857251;29;20076;-66
2021/09/28 10:56:20;;;;;;;5.75;1.45;;;20.10;72.20;;;;;;4868870;29;20470;-66
2021/09/28 10:58:55;;;;;;;6.13;1.40;;;20.20;70.80;;;;;;4867532;29;20037;-66
2021/09/28 11:01:24;;;;;;;5.63;1.30;;;20.20;71.80;;;;;;4870729;29;20132;-66
2021/09/28 11:03:51;;;;;;;4.30;1.50;;;20.30;70.30;;;;;;4870990;29;20068;-66
2021/09/28 11:06:37;;;;;;;6.93;1.33;;;20.30;70.90;;;;;;4860334;29;20033;-66
2021/09/28 11:09:03;;;;;;;11.18;1.98;;;20.40;71.50;;;;;;4867754;29;20040;-66
2021/09/28 11:11:30;;;;;;;12.70;1.60;;;20.50;70.90;;;;;;4862905;29;20040;-67
2021/09/28 11:14:00;;;;;;;6.82;1.58;;;20.50;70.90;;;;;;4857865;29;20039;-67
2021/09/28 11:16:26;;;;;;;5.10;1.35;;;20.50;70.20;;;;;;4861558;29;20044;-66
2021/09/28 11:18:59;;;;;;;5.72;1.40;;;20.40;70.30;;;;;;4868398;29;20055;-67
2021/09/28 11:21:25;;;;;;;5.05;1.23;;;20.40;68.80;;;;;;4863736;29;20041;-65
2021/09/28 11:23:52;;;;;;;3.58;1.20;;;20.40;68.80;;;;;;4862871;29;20420;-66
2021/09/28 11:26:18;;;;;;;3.60;1.40;;;20.40;67.40;;;;;;4865210;29;20116;-66
2021/09/28 11:28:49;;;;;;;5.35;1.17;;;20.40;67.80;;;;;;4871060;29;20446;-66
2021/09/28 11:31:15;;;;;;;8.60;1.40;;;20.40;67.40;;;;;;4867858;29;20093;-65
2021/09/28 11:33:43;;;;;;;5.30;1.35;;;20.40;68.00;;;;;;4865185;29;20088;-67
2021/09/28 11:36:12;;;;;;;6.05;1.55;;;20.40;67.10;;;;;;4868238;29;20385;-68
2021/09/28 11:38:41;;;;;;;7.53;1.42;;;20.50;68.10;;;;;;4874418;29;20520;-67
2021/09/28 11:41:11;;;;;;;5.60;1.20;;;20.60;67.60;;;;;;4865067;29;20542;-67
2021/09/28 11:43:38;;;;;;;4.60;1.52;;;20.60;66.90;;;;;;4868656;29;20029;-68
2021/09/28 11:46:13;;;;;;;4.43;1.55;;;20.70;67.30;;;;;;4869009;29;20070;-67
2021/09/28 11:48:48;;;;;;;3.67;0.95;;;20.70;66.40;;;;;;4871851;29;20120;-67
2021/09/28 11:51:17;;;;;;;4.65;1.55;;;20.70;66.00;;;;;;4866886;29;20045;-67
2021/09/28 11:53:47;;;;;;;7.80;1.70;;;20.60;67.60;;;;;;4865924;29;20040;-67
2021/09/28 11:56:16;;;;;;;3.33;1.00;;;20.60;67.80;;;;;;4864003;29;20041;-67
2021/09/28 11:58:42;;;;;;;4.80;1.00;;;20.70;64.80;;;;;;4862520;29;20100;-67
2021/09/28 12:01:12;;;;;;;5.57;1.35;;;20.70;66.20;;;;;;4861022;29;20494;-67
2021/09/28 12:09:45;;;;;;;4.40;1.27;;;20.90;63.90;;;;;;4867378;29;20033;-67
2021/09/28 12:12:14;;;;;;;2.83;0.90;;;20.90;63.70;;;;;;4862860;29;20052;-68
2021/09/28 12:14:44;;;;;;;4.45;1.13;;;20.80;63.00;;;;;;4861914;29;20057;-66
2021/09/28 12:17:11;;;;;;;3.00;0.88;;;20.80;65.00;;;;;;4862035;29;20554;-67
2021/09/28 12:19:39;;;;;;;6.00;1.20;;;20.80;64.60;;;;;;4864246;29;20060;-67
2021/09/28 12:22:05;;;;;;;5.70;1.08;;;20.90;64.90;;;;;;4862185;29;20037;-67
2021/09/28 12:24:53;;;;;;;2.90;1.00;;;20.90;63.00;;;;;;4858464;29;20038;-67
2021/09/28 12:27:21;;;;;;;3.83;0.80;;;20.90;62.80;;;;;;4869422;29;20490;-67
2021/09/28 12:29:50;;;;;;;6.55;1.63;;;21.00;64.80;;;;;;4864131;29;20040;-68
2021/09/28 12:32:23;;;;;;;4.75;1.10;;;21.00;63.10;;;;;;4863117;29;20071;-67
2021/09/28 12:35:12;;;;;;;3.42;0.90;;;21.10;61.60;;;;;;4863988;29;20816;-68
2021/09/28 12:37:56;;;;;;;4.82;1.10;;;21.10;61.80;;;;;;4874590;29;20089;-67
2021/09/28 12:40:24;;;;;;;2.80;1.10;;;21.20;63.00;;;;;;4856728;29;20041;-68
2021/09/28 12:43:06;;;;;;;3.72;1.30;;;21.20;62.60;;;;;;4862626;29;20044;-67
2021/09/28 12:45:45;;;;;;;3.70;1.10;;;21.20;61.10;;;;;;4861579;29;20033;-67
2021/09/28 12:48:12;;;;;;;4.38;1.30;;;21.20;60.60;;;;;;4865312;29;20037;-67
2021/09/28 12:50:40;;;;;;;3.38;1.00;;;21.00;61.20;;;;;;4863489;29;20040;-67
2021/09/28 12:53:14;;;;;;;3.80;0.93;;;21.00;61.50;;;;;;4851284;29;20052;-68